Viola, Minnesota
Current Conditions -  °F | °C
As of 1:34 PM on Thursday 23 Oct 2014 (Local Time) from K9MN Reporting Station
Overcast Overcast  
Wind Chill: 54°   Ceiling: 500
Heat Index: 54°   Visibility: 10mi
Dew Point: 51°   Wind: 6mph
Humidity: 92%   Direction: 260°W
Pressure: 30.02"   Gusts: NA
Location:  44.0209°N, 92.2585°W
Report Text: K9MN 231834Z AUTO 26005KT 10SM OVC005 12/11 A3002 RMK AO1 T01200107
Loading
Personal Weather Stations






























Interactive Weather Map
Tropical Storm Tracking
New forecast layout! Learn more

10-Day Weather Forecast

Advertisements
Track Severe Weather on mobile